Time;durP1;ratioP1;P1;durP2;ratioP2;P2;SDS_P1;SDS_P2;PMS_P1;PMS_P2;Temp;Humidity;BMP_temperature;BMP_pressure;BME280_temperature;BME280_humidity;BME280_pressure;Samples;Min_cycle;Max_cycle;Signal;HPM_P1;HPM_P2
2021/01/25 00:00:28;;;;;;;6.75;3.22;;;;;;;15.37;60.21;94316.72;1055573;28;20027;-67
2021/01/25 00:00:59;;;;;;;7.32;2.95;;;;;;;15.37;62.54;94314.06;1055709;28;20031;-67
2021/01/25 00:01:29;;;;;;;8.10;3.20;;;;;;;15.37;62.26;94316.72;1055613;28;20020;-67
2021/01/25 00:02:00;;;;;;;7.03;2.92;;;;;;;15.43;63.14;94320.78;1055508;28;20024;-67
2021/01/25 00:02:30;;;;;;;8.25;3.67;;;;;;;15.39;61.19;94325.19;1055540;28;20028;-67
2021/01/25 00:03:01;;;;;;;7.53;3.10;;;;;;;15.42;63.34;94324.56;1055151;28;20019;-67
2021/01/25 00:03:32;;;;;;;5.00;2.70;;;;;;;15.45;63.93;94322.03;1052205;28;20020;-72
2021/01/25 00:04:02;;;;;;;7.63;3.00;;;;;;;15.46;63.56;94320.94;1052893;28;20019;-73
2021/01/25 00:04:33;;;;;;;13.30;3.63;;;;;;;15.45;63.72;94319.38;1052912;28;20497;-72
2021/01/25 00:05:07;;;;;;;14.48;3.85;;;;;;;15.43;63.61;94316.25;1053031;28;20469;-72
2021/01/25 00:05:37;;;;;;;5.25;3.50;;;;;;;15.38;61.42;94316.41;1052953;28;20474;-73
2021/01/25 00:06:08;;;;;;;9.75;3.10;;;;;;;15.40;63.23;94316.09;1053859;28;20057;-72
2021/01/25 00:06:38;;;;;;;8.00;3.25;;;;;;;15.41;63.64;94313.13;1056584;28;20019;-72
2021/01/25 00:07:08;;;;;;;11.07;3.80;;;;;;;15.40;63.96;94316.88;1056054;28;20031;-72
2021/01/25 00:07:39;;;;;;;9.55;3.83;;;;;;;15.38;64.00;94320.97;1054183;28;20036;-72
2021/01/25 00:08:09;;;;;;;8.23;4.07;;;;;;;15.37;63.89;94314.06;1056592;28;20023;-72
2021/01/25 00:08:40;;;;;;;7.07;3.50;;;;;;;15.34;62.71;94312.03;1057485;28;20023;-72
2021/01/25 00:09:10;;;;;;;6.50;3.50;;;;;;;15.29;63.54;94309.56;1057463;28;20423;-72
2021/01/25 00:09:41;;;;;;;8.25;3.00;;;;;;;15.34;60.60;94318.16;1057539;28;20394;-72
2021/01/25 00:10:11;;;;;;;11.63;3.40;;;;;;;15.32;62.59;94319.59;1054622;28;20461;-72
2021/01/25 00:10:42;;;;;;;9.80;3.45;;;;;;;15.30;63.35;94309.25;1053344;28;20020;-72
2021/01/25 00:11:13;;;;;;;8.63;3.58;;;;;;;15.28;62.86;94310.69;1053253;28;20024;-71
2021/01/25 00:11:43;;;;;;;8.68;3.45;;;;;;;15.28;64.13;94308.00;1052760;28;20031;-72
2021/01/25 00:12:14;;;;;;;6.20;3.05;;;;;;;15.27;63.54;94307.19;1053355;28;20035;-73
2021/01/25 00:12:44;;;;;;;12.68;3.03;;;;;;;15.32;64.59;94307.03;1053088;28;20122;-72
2021/01/25 00:13:14;;;;;;;7.93;3.35;;;;;;;15.36;64.10;94304.50;1052978;28;20487;-67
2021/01/25 00:13:45;;;;;;;10.63;3.45;;;;;;;15.34;64.35;94301.38;1052731;28;20042;-68
2021/01/25 00:14:15;;;;;;;10.40;3.78;;;;;;;15.34;64.02;94306.72;1053022;28;20028;-67
2021/01/25 00:14:46;;;;;;;9.05;3.45;;;;;;;15.31;64.05;94297.47;1048732;28;20036;-67
2021/01/25 00:15:16;;;;;;;6.63;3.05;;;;;;;15.35;64.52;94301.03;1044650;28;20466;-69
2021/01/25 00:15:48;;;;;;;10.23;3.67;;;;;;;15.33;62.86;94300.59;1048711;28;20021;-69
2021/01/25 00:16:18;;;;;;;12.85;3.25;;;;;;;15.35;64.37;94302.94;1048782;28;20016;-70
2021/01/25 00:16:49;;;;;;;7.05;3.63;;;;;;;15.33;63.59;94300.59;1053042;28;20024;-70
2021/01/25 00:17:19;;;;;;;7.50;3.40;;;;;;;15.31;62.50;94302.03;1053306;28;20372;-69
2021/01/25 00:17:50;;;;;;;15.43;3.80;;;;;;;15.27;63.68;94303.75;1053281;28;20442;-69
2021/01/25 00:18:20;;;;;;;9.80;3.22;;;;;;;15.26;64.37;94299.50;1053176;28;20032;-68
2021/01/25 00:18:50;;;;;;;5.78;3.70;;;;;;;15.25;63.70;94303.28;1053285;28;20032;-69
2021/01/25 00:19:21;;;;;;;9.50;3.42;;;;;;;15.26;64.15;94302.19;1053198;28;20028;-70
2021/01/25 00:19:51;;;;;;;10.13;3.17;;;;;;;15.26;63.74;94296.84;1053250;28;20016;-72
2021/01/25 00:20:22;;;;;;;12.15;3.42;;;;;;;15.23;63.56;94297.50;1053306;28;20028;-72
2021/01/25 00:20:52;;;;;;;6.63;3.00;;;;;;;15.19;63.15;94294.69;1053259;28;20020;-73
2021/01/25 00:21:23;;;;;;;7.10;2.78;;;;;;;15.22;64.64;94296.72;1054051;28;20038;-72
2021/01/25 00:21:53;;;;;;;6.72;3.10;;;;;;;15.21;64.69;94293.25;1053198;28;20063;-72
2021/01/25 00:22:25;;;;;;;10.10;3.35;;;;;;;15.24;64.92;94291.84;1057059;28;20401;-72
2021/01/25 00:22:56;;;;;;;8.45;2.85;;;;;;;15.26;64.74;94292.28;1057216;28;20076;-72
2021/01/25 00:23:26;;;;;;;9.57;3.58;;;;;;;15.27;64.67;94288.50;1057182;28;20430;-72
2021/01/25 00:23:56;;;;;;;10.30;3.67;;;;;;;15.26;64.25;94288.84;1056908;28;20036;-71
2021/01/25 00:24:27;;;;;;;7.28;3.10;;;;;;;15.24;64.50;94283.81;1053223;28;20024;-72
2021/01/25 00:24:57;;;;;;;5.82;2.78;;;;;;;15.23;64.64;94290.28;1053317;28;20491;-72
2021/01/25 00:25:28;;;;;;;9.93;3.90;;;;;;;15.24;64.11;94280.38;1053176;28;20035;-72
2021/01/25 00:25:58;;;;;;;4.63;3.08;;;;;;;15.14;62.14;94276.97;1053185;28;20031;-72
2021/01/25 00:26:28;;;;;;;8.30;3.35;;;;;;;15.16;63.76;94282.00;1052563;28;20082;-72
2021/01/25 00:26:59;;;;;;;7.65;3.10;;;;;;;15.16;61.98;94277.44;1052738;28;20047;-72
2021/01/25 00:27:29;;;;;;;8.10;2.90;;;;;;;15.17;63.99;94276.34;1052745;28;20070;-72
2021/01/25 00:28:00;;;;;;;7.57;3.42;;;;;;;15.15;62.29;94273.22;1052914;28;20095;-72
2021/01/25 00:28:30;;;;;;;7.82;3.22;;;;;;;15.17;63.47;94276.34;1053226;28;20453;-69
2021/01/25 00:29:01;;;;;;;9.40;3.40;;;;;;;15.18;64.34;94283.25;1053344;28;20020;-69
2021/01/25 00:29:31;;;;;;;6.22;2.90;;;;;;;15.14;62.95;94281.53;1053238;28;20028;-69
2021/01/25 00:30:03;;;;;;;6.05;3.20;;;;;;;15.15;63.81;94270.56;1052573;28;20453;-68
2021/01/25 00:30:33;;;;;;;6.45;3.20;;;;;;;15.15;63.82;94278.56;1048998;28;20032;-68
2021/01/25 00:31:04;;;;;;;8.73;3.22;;;;;;;15.16;64.15;94269.44;1049057;28;20013;-68
2021/01/25 00:31:34;;;;;;;7.85;2.60;;;;;;;15.18;64.17;94267.22;1049043;28;20012;-68
2021/01/25 00:32:06;;;;;;;5.90;2.90;;;;;;;15.18;64.08;94275.25;1052400;28;20381;-69
2021/01/25 00:32:37;;;;;;;7.82;3.10;;;;;;;15.15;63.65;94273.22;1052740;28;20027;-69
2021/01/25 00:33:08;;;;;;;7.85;3.30;;;;;;;15.13;63.34;94275.41;1053589;28;20477;-69
2021/01/25 00:33:38;;;;;;;8.82;3.20;;;;;;;15.14;63.67;94276.97;1057017;28;20023;-69
2021/01/25 00:34:09;;;;;;;6.57;2.72;;;;;;;15.13;63.11;94280.75;1057345;28;20023;-69
2021/01/25 00:34:39;;;;;;;6.20;2.58;;;;;;;15.18;64.47;94271.78;1057383;28;20024;-69
2021/01/25 00:35:10;;;;;;;5.88;3.05;;;;;;;15.16;63.82;94288.13;1057414;28;20464;-69
2021/01/25 00:35:41;;;;;;;5.03;2.90;;;;;;;15.14;63.21;94276.19;1057386;28;20031;-70
2021/01/25 00:36:11;;;;;;;9.27;3.05;;;;;;;15.12;62.00;94276.50;1057348;28;20023;-70
2021/01/25 00:36:42;;;;;;;6.55;2.95;;;;;;;15.06;63.34;94269.81;1057390;28;20477;-70
2021/01/25 00:37:12;;;;;;;11.07;3.08;;;;;;;15.12;64.58;94271.16;1057423;28;20405;-71
2021/01/25 00:37:43;;;;;;;9.35;3.10;;;;;;;15.11;63.69;94272.28;1056182;28;20469;-70
2021/01/25 00:38:14;;;;;;;6.65;3.28;;;;;;;15.10;63.61;94272.59;1053128;28;20469;-70
2021/01/25 00:38:44;;;;;;;6.70;2.90;;;;;;;15.07;63.48;94271.38;1053123;28;20259;-70
2021/01/25 00:39:14;;;;;;;6.07;3.55;;;;;;;15.08;64.29;94272.94;1053153;28;20028;-70
2021/01/25 00:39:45;;;;;;;5.45;2.65;;;;;;;15.09;63.89;94269.16;1052986;28;20020;-70
2021/01/25 00:40:15;;;;;;;8.30;2.90;;;;;;;15.10;63.66;94270.72;1052602;28;20031;-70
2021/01/25 00:40:46;;;;;;;6.97;2.70;;;;;;;15.11;64.26;94279.50;1052993;28;20030;-70
2021/01/25 00:41:16;;;;;;;6.40;3.08;;;;;;;15.08;64.00;94274.81;1053148;28;20028;-70
2021/01/25 00:41:47;;;;;;;7.20;3.03;;;;;;;15.08;62.78;94272.16;1053438;28;20027;-70
2021/01/25 00:42:17;;;;;;;6.93;2.70;;;;;;;15.09;64.27;94274.50;1057420;28;20016;-70
2021/01/25 00:42:47;;;;;;;6.43;2.72;;;;;;;15.09;63.59;94274.50;1057328;28;20027;-70
2021/01/25 00:43:18;;;;;;;8.90;3.65;;;;;;;15.08;63.53;94274.81;1052985;28;20024;-70
2021/01/25 00:43:48;;;;;;;9.05;3.17;;;;;;;15.06;63.14;94277.81;1052967;28;20051;-70
2021/01/25 00:44:19;;;;;;;9.38;3.20;;;;;;;15.03;63.00;94269.63;1053193;28;20031;-70
2021/01/25 00:44:49;;;;;;;4.50;2.80;;;;;;;15.03;62.58;94267.75;1053111;28;20031;-70
2021/01/25 00:45:19;;;;;;;8.70;3.08;;;;;;;15.04;63.21;94264.00;1053206;28;20016;-70
2021/01/25 00:45:50;;;;;;;5.47;2.88;;;;;;;15.06;63.56;94272.47;1053178;28;20023;-70
2021/01/25 00:46:20;;;;;;;7.35;3.03;;;;;;;15.08;64.11;94272.94;1053213;28;20437;-70
2021/01/25 00:46:51;;;;;;;8.77;2.80;;;;;;;15.08;63.95;94272.16;1053028;28;20467;-70
2021/01/25 00:47:21;;;;;;;4.10;2.78;;;;;;;15.04;62.54;94274.69;1052662;28;20046;-70
2021/01/25 00:47:51;;;;;;;6.53;2.88;;;;;;;15.04;63.67;94277.34;1053201;28;20035;-73
2021/01/25 00:48:22;;;;;;;5.10;2.58;;;;;;;15.03;63.49;94270.41;1053197;28;20035;-72
2021/01/25 00:48:52;;;;;;;9.20;3.65;;;;;;;15.06;64.62;94269.81;1053031;28;20035;-73
2021/01/25 00:49:23;;;;;;;6.50;2.90;;;;;;;15.10;64.95;94273.38;1053164;28;20476;-72
2021/01/25 00:49:53;;;;;;;5.90;3.28;;;;;;;15.09;65.04;94271.81;1053222;28;20051;-73
2021/01/25 00:50:24;;;;;;;5.03;2.92;;;;;;;15.07;64.98;94275.91;1054860;28;20020;-73
2021/01/25 00:50:54;;;;;;;6.40;3.10;;;;;;;15.10;65.04;94284.06;1057053;28;20055;-72
2021/01/25 00:51:24;;;;;;;5.97;2.92;;;;;;;15.10;65.17;94276.06;1057055;28;20024;-72
2021/01/25 00:51:55;;;;;;;9.45;2.92;;;;;;;15.10;64.74;94276.06;1056794;28;20039;-72
2021/01/25 00:52:25;;;;;;;8.63;3.15;;;;;;;15.09;65.31;94277.16;1054955;28;20024;-73
2021/01/25 00:52:56;;;;;;;10.05;3.08;;;;;;;15.09;65.01;94274.50;1052640;28;20020;-72
2021/01/25 00:53:26;;;;;;;10.05;3.65;;;;;;;15.10;65.13;94275.28;1053111;28;20085;-72
2021/01/25 00:53:56;;;;;;;5.45;2.72;;;;;;;15.09;65.26;94279.81;1052954;28;20041;-73
2021/01/25 00:54:27;;;;;;;8.65;3.20;;;;;;;15.08;65.14;94278.25;1052742;28;20028;-73
2021/01/25 00:54:58;;;;;;;6.57;2.45;;;;;;;15.05;63.61;94272.78;1048452;28;20404;-72
2021/01/25 00:55:28;;;;;;;7.28;3.38;;;;;;;15.05;63.76;94275.47;1048081;28;20033;-72
2021/01/25 00:55:59;;;;;;;4.68;2.50;;;;;;;15.05;64.87;94272.78;1048408;28;20033;-73
2021/01/25 00:56:29;;;;;;;8.75;3.13;;;;;;;15.06;64.04;94277.03;1048551;28;20063;-72
2021/01/25 00:56:59;;;;;;;7.90;2.88;;;;;;;15.07;64.55;94275.91;1052741;28;20016;-72
2021/01/25 00:57:30;;;;;;;7.57;3.30;;;;;;;15.04;63.64;94271.22;1052501;28;20024;-72
2021/01/25 00:58:01;;;;;;;6.22;3.25;;;;;;;15.05;64.58;94270.13;1053013;28;20464;-72
2021/01/25 00:58:31;;;;;;;9.77;3.53;;;;;;;14.99;63.00;94268.72;1053144;28;20020;-72
2021/01/25 00:59:02;;;;;;;10.40;3.22;;;;;;;14.99;64.92;94272.16;1053090;28;20019;-72
2021/01/25 00:59:32;;;;;;;10.55;3.03;;;;;;;14.98;64.46;94275.94;1053062;28;20024;-72
2021/01/25 01:00:06;;;;;;;8.38;3.65;;;;;;;14.99;65.14;94274.84;1053108;28;20484;-72
2021/01/25 01:00:36;;;;;;;8.38;3.17;;;;;;;15.00;65.63;94276.41;1052913;28;20077;-72
2021/01/25 01:01:07;;;;;;;7.40;3.22;;;;;;;15.04;65.53;94277.34;1052903;28;20108;-72
2021/01/25 01:01:37;;;;;;;7.13;2.63;;;;;;;15.05;65.56;94275.47;1053053;28;20056;-72
2021/01/25 01:02:08;;;;;;;7.35;2.97;;;;;;;15.04;64.85;94271.22;1053147;28;20464;-72
2021/01/25 01:02:38;;;;;;;6.68;2.80;;;;;;;15.06;64.79;94279.69;1053129;28;20028;-72
2021/01/25 01:03:09;;;;;;;7.35;3.42;;;;;;;15.05;65.23;94270.91;1053124;28;20110;-72
2021/01/25 01:03:39;;;;;;;4.88;2.75;;;;;;;15.04;65.56;94274.69;1052453;28;20028;-72
2021/01/25 01:04:10;;;;;;;6.10;2.97;;;;;;;15.06;65.48;94274.34;1052490;28;20020;-73
2021/01/25 01:04:40;;;;;;;8.20;2.95;;;;;;;15.05;65.70;94268.25;1052466;28;20020;-72
2021/01/25 01:05:11;;;;;;;6.53;3.55;;;;;;;15.06;65.90;94272.47;1052790;28;20023;-72
2021/01/25 01:05:41;;;;;;;6.22;2.83;;;;;;;15.03;65.72;94266.97;1052706;28;20074;-72
2021/01/25 01:06:12;;;;;;;14.60;3.22;;;;;;;15.08;65.16;94274.81;1053101;28;20141;-72
2021/01/25 01:06:42;;;;;;;7.35;2.60;;;;;;;15.09;65.52;94276.38;1053109;28;20107;-72
2021/01/25 01:07:12;;;;;;;8.65;3.08;;;;;;;15.07;65.11;94271.38;1053144;28;20465;-72
2021/01/25 01:07:43;;;;;;;9.75;2.92;;;;;;;15.07;65.23;94270.59;1053062;28;20430;-73
2021/01/25 01:08:15;;;;;;;6.15;2.63;;;;;;;15.07;65.60;94275.91;1052863;28;20517;-72
2021/01/25 01:08:45;;;;;;;9.65;2.65;;;;;;;15.06;65.29;94264.47;1053116;28;20034;-72
2021/01/25 01:09:16;;;;;;;4.97;2.30;;;;;;;15.05;63.87;94268.25;1053023;28;20378;-72
2021/01/25 01:09:46;;;;;;;5.28;2.72;;;;;;;15.01;64.96;94267.28;1052997;28;20457;-72
2021/01/25 01:10:16;;;;;;;5.72;2.55;;;;;;;15.04;65.39;94266.69;1055526;28;20014;-73
2021/01/25 01:10:47;;;;;;;6.45;2.45;;;;;;;15.07;65.72;94263.34;1052809;28;20107;-72
2021/01/25 01:11:17;;;;;;;8.43;2.67;;;;;;;15.08;65.77;94270.25;1052706;28;20502;-72
2021/01/25 01:11:48;;;;;;;6.47;3.03;;;;;;;15.07;65.33;94266.03;1053551;28;20024;-72
2021/01/25 01:12:18;;;;;;;9.02;2.80;;;;;;;15.08;65.82;94267.59;1048957;28;20024;-72
2021/01/25 01:12:48;;;;;;;5.03;2.80;;;;;;;15.05;64.07;94272.78;1052320;28;20377;-72
2021/01/25 01:13:19;;;;;;;4.75;2.40;;;;;;;15.07;65.68;94267.91;1053019;28;20495;-72
2021/01/25 01:13:49;;;;;;;6.10;3.28;;;;;;;15.07;65.45;94273.25;1052785;28;20039;-73
2021/01/25 01:14:20;;;;;;;6.95;2.80;;;;;;;15.06;64.40;94261.03;1053005;28;20031;-72
2021/01/25 01:14:50;;;;;;;4.95;2.80;;;;;;;15.02;64.83;94263.53;1052731;28;20023;-71
2021/01/25 01:15:20;;;;;;;4.22;2.55;;;;;;;15.01;64.64;94269.97;1052424;28;20059;-71
2021/01/25 01:15:51;;;;;;;6.03;2.63;;;;;;;14.99;65.02;94269.50;1052876;28;20023;-71
2021/01/25 01:16:21;;;;;;;7.53;2.75;;;;;;;15.04;65.55;94273.91;1052700;28;20028;-71
2021/01/25 01:16:52;;;;;;;6.32;2.53;;;;;;;14.97;65.60;94268.28;1052753;28;20012;-71
2021/01/25 01:17:22;;;;;;;5.78;3.35;;;;;;;15.04;65.78;94265.91;1048516;28;20029;-71
2021/01/25 01:17:53;;;;;;;3.75;2.53;;;;;;;15.03;64.79;94267.75;1048330;28;20450;-71
2021/01/25 01:18:23;;;;;;;9.18;2.97;;;;;;;15.01;65.20;94264.63;1043707;28;20057;-71
2021/01/25 01:18:53;;;;;;;6.65;3.22;;;;;;;15.01;65.06;94269.19;1044335;28;20123;-71
2021/01/25 01:19:24;;;;;;;5.55;3.17;;;;;;;14.99;64.98;94269.50;1048406;28;20024;-71
2021/01/25 01:19:54;;;;;;;5.57;2.85;;;;;;;15.01;65.75;94269.19;1048549;28;20016;-71
2021/01/25 01:20:25;;;;;;;7.20;2.97;;;;;;;15.00;65.36;94273.75;1048786;28;20056;-71
2021/01/25 01:20:55;;;;;;;6.05;3.10;;;;;;;14.96;65.69;94264.81;1048855;28;20017;-71
2021/01/25 01:21:25;;;;;;;8.10;2.67;;;;;;;14.99;65.61;94263.38;1048735;28;20028;-71
2021/01/25 01:21:56;;;;;;;10.77;3.45;;;;;;;14.95;64.83;94265.16;1048620;28;20020;-71
2021/01/25 01:22:26;;;;;;;7.50;2.30;;;;;;;14.96;65.71;94262.16;1049451;28;20465;-72
2021/01/25 01:22:57;;;;;;;5.30;2.53;;;;;;;14.95;65.81;94257.16;1052730;28;20028;-71
2021/01/25 01:23:27;;;;;;;4.55;2.63;;;;;;;14.94;65.01;94259.03;1052941;28;20035;-71
2021/01/25 01:23:57;;;;;;;5.28;2.90;;;;;;;14.97;66.07;94261.06;1052988;28;20012;-71
2021/01/25 01:24:28;;;;;;;7.15;2.72;;;;;;;14.98;65.85;94256.50;1052562;28;20028;-71
2021/01/25 01:24:58;;;;;;;4.60;2.95;;;;;;;14.96;65.75;94258.72;1052698;28;20012;-71
2021/01/25 01:25:29;;;;;;;7.78;2.70;;;;;;;14.98;66.09;94254.59;1052930;28;20423;-71
2021/01/25 01:25:59;;;;;;;3.53;2.05;;;;;;;14.96;66.07;94262.16;1052990;28;20040;-71
2021/01/25 01:26:30;;;;;;;8.32;3.00;;;;;;;14.97;65.72;94257.59;1052888;28;20016;-71
2021/01/25 01:27:00;;;;;;;5.30;2.85;;;;;;;14.93;64.42;94254.81;1052986;28;20016;-72
2021/01/25 01:27:31;;;;;;;5.32;2.70;;;;;;;14.95;65.64;94257.94;1052932;28;20365;-71
2021/01/25 01:28:01;;;;;;;5.18;2.70;;;;;;;14.91;63.84;94247.09;1052792;28;20020;-72
2021/01/25 01:28:31;;;;;;;5.13;2.58;;;;;;;14.95;65.60;94257.94;1052842;28;20437;-71
2021/01/25 01:29:02;;;;;;;4.38;2.33;;;;;;;14.94;66.21;94253.69;1053024;28;20012;-71
2021/01/25 01:29:33;;;;;;;7.22;2.28;;;;;;;14.92;65.39;94247.91;1052953;28;20051;-71
2021/01/25 01:30:05;;;;;;;4.75;2.70;;;;;;;14.95;66.14;94252.59;1053117;28;20385;-72
2021/01/25 01:30:35;;;;;;;5.10;2.65;;;;;;;14.95;65.85;94252.59;1052969;28;20028;-71
2021/01/25 01:31:06;;;;;;;4.07;2.80;;;;;;;14.93;65.54;94249.47;1052640;28;20461;-71
2021/01/25 01:31:36;;;;;;;2.67;2.10;;;;;;;14.90;66.01;94250.09;1052943;28;20034;-71
2021/01/25 01:32:07;;;;;;;5.30;3.05;;;;;;;14.89;64.80;94253.84;1052655;28;20036;-71
2021/01/25 01:32:37;;;;;;;5.70;2.75;;;;;;;14.92;66.28;94250.56;1052783;28;20031;-71
2021/01/25 01:33:07;;;;;;;4.78;2.70;;;;;;;14.90;66.13;94256.19;1052980;28;20031;-71
2021/01/25 01:33:38;;;;;;;5.45;2.60;;;;;;;14.88;65.94;94253.06;1052907;28;20032;-72
2021/01/25 01:34:08;;;;;;;5.00;3.15;;;;;;;14.90;66.10;94244.75;1052742;28;20024;-72
2021/01/25 01:34:39;;;;;;;3.92;2.60;;;;;;;14.92;66.20;94245.25;1052849;28;20393;-71
2021/01/25 01:35:09;;;;;;;4.32;2.38;;;;;;;14.88;64.37;94247.75;1053065;28;20377;-71
2021/01/25 01:35:39;;;;;;;6.40;2.60;;;;;;;14.88;65.75;94239.75;1052959;28;20497;-71
2021/01/25 01:36:10;;;;;;;3.85;2.63;;;;;;;14.87;65.20;94245.41;1052770;28;20028;-71
2021/01/25 01:36:40;;;;;;;4.55;2.50;;;;;;;14.88;66.22;94242.41;1052865;28;20492;-71
2021/01/25 01:37:11;;;;;;;8.82;3.00;;;;;;;14.87;65.17;94246.19;1052998;28;20023;-72
2021/01/25 01:37:41;;;;;;;5.22;2.88;;;;;;;14.88;65.62;94244.28;1052942;28;20111;-72
2021/01/25 01:38:12;;;;;;;5.15;2.33;;;;;;;14.89;66.17;94241.31;1053009;28;20039;-72
2021/01/25 01:38:42;;;;;;;4.35;2.25;;;;;;;14.91;66.58;94247.09;1052857;28;20074;-71
2021/01/25 01:39:13;;;;;;;5.35;2.50;;;;;;;14.91;66.39;94235.66;1052961;28;20077;-71
2021/01/25 01:39:43;;;;;;;5.10;2.53;;;;;;;14.91;66.39;94232.97;1052865;28;20109;-72
2021/01/25 01:40:14;;;;;;;5.45;2.90;;;;;;;14.90;66.00;94234.09;1052696;28;20024;-72
2021/01/25 01:40:44;;;;;;;4.07;2.22;;;;;;;14.89;65.87;94237.84;1052974;28;20488;-71
2021/01/25 01:41:14;;;;;;;4.18;2.65;;;;;;;14.88;66.17;94237.06;1052941;28;20415;-71
2021/01/25 01:41:45;;;;;;;5.63;3.05;;;;;;;14.89;66.00;94237.84;1052886;28;20043;-71
2021/01/25 01:42:18;;;;;;;4.18;2.75;;;;;;;14.85;65.60;94243.06;1052688;28;20031;-72
2021/01/25 01:42:49;;;;;;;4.07;2.55;;;;;;;14.86;65.74;94239.28;1052826;28;20098;-71
2021/01/25 01:43:19;;;;;;;4.57;2.60;;;;;;;14.84;65.59;94232.72;1052890;28;20023;-70
2021/01/25 01:43:50;;;;;;;7.65;2.70;;;;;;;14.86;65.99;94241.16;1052576;28;20035;-71
2021/01/25 01:44:20;;;;;;;7.10;3.03;;;;;;;14.82;64.87;94240.25;1052711;28;20043;-71
2021/01/25 01:44:50;;;;;;;5.50;2.30;;;;;;;14.82;66.03;94237.59;1052495;28;20032;-70
2021/01/25 01:45:21;;;;;;;3.97;2.35;;;;;;;14.84;66.32;94240.72;1052379;28;20027;-69
2021/01/25 01:45:51;;;;;;;8.43;3.05;;;;;;;14.85;66.76;94237.72;1052614;28;20031;-70
2021/01/25 01:46:22;;;;;;;8.63;3.30;;;;;;;14.83;65.92;94245.25;1052973;28;20031;-70
2021/01/25 01:46:52;;;;;;;6.00;2.35;;;;;;;14.83;66.98;94237.25;1048412;28;20048;-69
2021/01/25 01:47:23;;;;;;;5.63;2.90;;;;;;;14.84;66.25;94240.72;1044226;28;20505;-70
2021/01/25 01:47:53;;;;;;;6.43;2.42;;;;;;;14.86;66.95;94241.16;1041587;28;20422;-70
2021/01/25 01:48:25;;;;;;;5.75;2.80;;;;;;;14.81;66.45;94236.81;1036365;28;20478;-70
2021/01/25 01:48:55;;;;;;;5.18;2.85;;;;;;;14.83;66.20;94237.25;1046026;28;20021;-70
2021/01/25 01:49:26;;;;;;;4.93;2.50;;;;;;;14.86;67.03;94236.63;1052595;28;20020;-69
2021/01/25 01:49:56;;;;;;;4.65;2.60;;;;;;;14.86;67.28;94236.63;1048449;28;20366;-69
2021/01/25 01:50:28;;;;;;;6.35;2.88;;;;;;;14.81;65.16;94236.03;1048331;28;20021;-69
2021/01/25 01:50:58;;;;;;;6.40;2.70;;;;;;;14.81;66.02;94241.34;1048009;28;20046;-70
2021/01/25 01:51:28;;;;;;;4.85;2.60;;;;;;;14.82;66.68;94240.25;1048389;28;20505;-70
2021/01/25 01:51:59;;;;;;;6.00;2.97;;;;;;;14.82;65.95;94237.59;1052510;28;20071;-68
2021/01/25 01:52:29;;;;;;;5.45;2.75;;;;;;;14.84;66.74;94235.38;1052001;28;20381;-70
2021/01/25 01:53:00;;;;;;;6.78;3.45;;;;;;;14.81;66.55;94230.69;1052570;28;20053;-69
2021/01/25 01:53:30;;;;;;;10.32;2.45;;;;;;;14.86;67.16;94227.84;1048241;28;20104;-69
2021/01/25 01:54:00;;;;;;;7.00;2.78;;;;;;;14.88;66.67;94230.97;1048164;28;20024;-72
2021/01/25 01:54:31;;;;;;;8.25;2.90;;;;;;;14.84;66.36;94225.50;1044229;28;20045;-72
2021/01/25 01:55:01;;;;;;;9.27;2.95;;;;;;;14.81;65.09;94222.69;1044093;28;20017;-72
2021/01/25 01:55:32;;;;;;;10.38;2.75;;;;;;;14.78;64.96;94215.31;1044405;28;20418;-72
2021/01/25 01:56:03;;;;;;;3.97;2.42;;;;;;;14.78;66.57;94215.31;1052491;28;20067;-74
2021/01/25 01:56:33;;;;;;;8.60;2.63;;;;;;;14.81;67.50;94207.47;1052653;28;20176;-73
2021/01/25 01:57:04;;;;;;;9.15;2.63;;;;;;;14.80;67.21;94205.91;1052336;28;20020;-74
2021/01/25 01:57:35;;;;;;;4.45;3.03;;;;;;;14.83;67.35;94207.16;1052550;28;20023;-74
2021/01/25 01:58:05;;;;;;;7.15;3.08;;;;;;;14.82;66.06;94202.94;1052413;28;20020;-74
2021/01/25 01:58:36;;;;;;;7.18;2.72;;;;;;;14.82;66.50;94198.38;1048359;28;20025;-74
2021/01/25 01:59:06;;;;;;;4.22;2.08;;;;;;;14.80;66.61;94197.09;1048373;28;20025;-73
2021/01/25 01:59:36;;;;;;;6.53;2.70;;;;;;;14.82;67.19;94194.94;1048319;28;20032;-74
2021/01/25 02:00:07;;;;;;;7.15;2.80;;;;;;;14.82;66.85;94200.25;1047649;28;20021;-72
2021/01/25 02:00:38;;;;;;;7.43;2.97;;;;;;;14.85;66.66;94188.94;1052500;28;20365;-73
2021/01/25 02:01:08;;;;;;;5.50;2.75;;;;;;;14.82;66.00;94190.38;1052703;28;20575;-72
2021/01/25 02:01:39;;;;;;;5.65;2.78;;;;;;;14.79;66.13;94182.22;1052746;28;20023;-72
2021/01/25 02:02:09;;;;;;;9.23;2.67;;;;;;;14.81;64.09;94185.38;1052209;28;20031;-72
2021/01/25 02:02:40;;;;;;;5.95;2.75;;;;;;;14.83;66.61;94180.47;1052530;28;20058;-72
2021/01/25 02:03:10;;;;;;;5.03;2.38;;;;;;;14.84;66.90;94182.81;1052535;28;20016;-72
2021/01/25 02:03:40;;;;;;;5.07;2.25;;;;;;;14.87;67.02;94181.41;1052186;28;20023;-71
2021/01/25 02:04:11;;;;;;;4.30;2.30;;;;;;;14.83;65.42;94180.47;1052629;28;20055;-71
2021/01/25 02:04:43;;;;;;;5.35;2.47;;;;;;;14.82;65.72;94176.25;1052873;28;20045;-74
2021/01/25 02:05:14;;;;;;;5.60;2.38;;;;;;;14.81;64.16;94172.81;1052640;28;20016;-73
2021/01/25 02:05:44;;;;;;;7.30;2.75;;;;;;;14.84;66.13;94176.72;1052404;28;20024;-72
2021/01/25 02:06:15;;;;;;;5.28;3.13;;;;;;;14.78;64.63;94178.75;1052337;28;20019;-73
2021/01/25 02:06:45;;;;;;;5.68;2.78;;;;;;;14.72;62.95;94182.72;1044292;28;20044;-73
2021/01/25 02:07:15;;;;;;;4.55;2.88;;;;;;;14.71;65.17;94183.06;1044170;28;20028;-73
2021/01/25 02:07:49;;;;;;;3.70;2.33;;;;;;;14.75;66.52;94183.97;1047967;28;20025;-73
2021/01/25 02:08:20;;;;;;;5.80;2.45;;;;;;;14.75;66.50;94187.41;1048217;28;20020;-73
2021/01/25 02:08:51;;;;;;;4.57;2.67;;;;;;;14.75;66.02;94181.28;1047779;28;20024;-73
2021/01/25 02:09:21;;;;;;;5.47;2.35;;;;;;;14.76;66.10;94174.84;1039732;28;20025;-73
2021/01/25 02:09:51;;;;;;;4.75;2.65;;;;;;;14.65;63.24;94176.31;1040071;28;20029;-73
2021/01/25 02:10:22;;;;;;;6.63;3.05;;;;;;;14.61;64.44;94174.31;1039949;28;20134;-73
2021/01/25 02:10:53;;;;;;;3.78;2.42;;;;;;;14.65;65.39;94168.31;1047509;28;20597;-72
2021/01/25 02:11:23;;;;;;;4.18;2.70;;;;;;;14.61;64.54;94170.84;1044401;28;20343;-73
2021/01/25 02:11:54;;;;;;;5.30;2.53;;;;;;;14.62;65.15;94167.88;1044017;28;20037;-73
2021/01/25 02:12:24;;;;;;;4.88;2.83;;;;;;;14.63;65.41;94168.66;1039899;28;20371;-73
2021/01/25 02:12:58;;;;;;;5.40;2.53;;;;;;;14.59;65.93;94157.06;1032065;28;20522;-73
2021/01/25 02:13:29;;;;;;;4.32;2.78;;;;;;;14.60;64.54;94164.75;1032850;28;20411;-73
2021/01/25 02:14:00;;;;;;;7.70;2.72;;;;;;;14.62;65.29;94175.88;1044129;28;20029;-73
2021/01/25 02:14:32;;;;;;;5.60;2.42;;;;;;;14.66;66.03;94167.22;1044665;28;20052;-73
2021/01/25 02:15:02;;;;;;;4.55;2.70;;;;;;;14.62;65.26;94162.53;1048281;28;20074;-73
2021/01/25 02:15:33;;;;;;;3.50;2.30;;;;;;;14.61;64.78;94163.66;1048305;28;20029;-74
2021/01/25 02:16:03;;;;;;;5.50;2.70;;;;;;;14.60;64.75;94166.63;1048281;28;20028;-70
2021/01/25 02:16:38;;;;;;;11.32;2.92;;;;;;;14.60;64.79;94171.97;1048272;28;20028;-69
2021/01/25 02:17:08;;;;;;;15.65;3.33;;;;;;;14.58;65.28;94166.97;1048300;28;20035;-69
2021/01/25 02:17:39;;;;;;;7.22;2.75;;;;;;;14.61;65.94;94184.97;1048039;28;20047;-69
2021/01/25 02:18:09;;;;;;;10.02;2.60;;;;;;;14.60;65.84;94182.63;1048315;28;20405;-69
2021/01/25 02:18:40;;;;;;;11.02;3.15;;;;;;;14.61;66.55;94182.31;1048245;28;20098;-68
2021/01/25 02:19:17;;;;;;;12.57;3.08;;;;;;;14.64;66.87;94175.53;1048359;28;20409;-69
2021/01/25 02:19:57;;;;;;;11.40;3.20;;;;;;;14.60;66.44;94178.06;1048490;28;20108;-69
2021/01/25 02:20:35;;;;;;;7.93;2.50;;;;;;;14.62;66.88;94186.53;1044053;28;20041;-69
2021/01/25 02:21:06;;;;;;;9.57;3.10;;;;;;;14.61;66.80;94176.97;1044206;28;20029;-70
2021/01/25 02:21:37;;;;;;;6.68;2.70;;;;;;;14.63;66.55;94187.31;1040114;28;20529;-69
2021/01/25 02:22:16;;;;;;;9.88;2.75;;;;;;;14.65;67.39;94187.75;1045118;28;20111;-69
2021/01/25 02:23:03;;;;;;;13.95;2.78;;;;;;;14.66;66.62;94189.31;1043946;28;20467;-69
2021/01/25 02:23:51;;;;;;;8.00;2.55;;;;;;;14.67;66.77;94198.09;1047682;28;20294;-69
2021/01/25 02:24:54;;;;;;;14.65;2.70;;;;;;;14.69;66.86;94198.59;1052623;28;20081;-69
2021/01/25 02:25:47;;;;;;;4.70;2.38;;;;;;;14.70;66.54;94197.50;1052494;28;20022;-69